createdAt,value
2022-12-17T00:03:56.750Z,88.80
2022-12-17T00:08:55.398Z,88.63
2022-12-17T00:13:55.314Z,88.63
2022-12-17T00:18:55.283Z,88.95
2022-12-17T00:23:55.253Z,89.69
2022-12-17T00:28:55.133Z,90.11
2022-12-17T00:33:55.089Z,88.95
2022-12-17T00:38:55.002Z,89.79
2022-12-17T00:43:56.356Z,89.47
2022-12-17T00:48:54.919Z,89.43
2022-12-17T00:53:54.869Z,89.58
2022-12-17T00:58:54.761Z,89.69
2022-12-17T01:03:54.732Z,89.64
2022-12-17T01:08:54.636Z,89.32
2022-12-17T01:13:54.561Z,88.80
2022-12-17T01:18:54.503Z,89.12
2022-12-17T01:23:54.494Z,89.58
2022-12-17T01:28:54.403Z,89.32
2022-12-17T01:33:54.302Z,89.47
2022-12-17T01:38:54.275Z,89.47
2022-12-17T01:43:54.261Z,89.37
2022-12-17T01:48:54.131Z,89.37
2022-12-17T01:53:54.150Z,89.79
2022-12-17T01:58:53.988Z,89.79
2022-12-17T02:03:53.984Z,90.06
2022-12-17T02:08:53.912Z,90.63
2022-12-17T02:13:53.796Z,90.53
2022-12-17T02:18:53.759Z,91.36
2022-12-17T02:23:53.874Z,91.16
2022-12-17T02:28:53.666Z,91.47
2022-12-17T02:33:53.573Z,91.05
2022-12-17T02:38:53.462Z,91.47
2022-12-17T02:43:53.467Z,92.21
2022-12-17T02:48:53.379Z,92.10
2022-12-17T02:53:53.302Z,93.15
2022-12-17T02:58:53.210Z,92.84
2022-12-17T03:03:53.182Z,92.52
2022-12-17T03:08:53.161Z,91.96
2022-12-17T03:13:53.018Z,91.43
2022-12-17T03:18:52.996Z,91.96
2022-12-17T03:23:52.907Z,91.64
2022-12-17T03:28:52.837Z,91.43
2022-12-17T03:33:52.784Z,91.16
2022-12-17T03:38:52.704Z,92.48
2022-12-17T03:43:52.713Z,91.78
2022-12-17T03:48:52.591Z,91.96
2022-12-17T03:53:52.983Z,91.85
2022-12-17T03:58:52.754Z,91.74
2022-12-17T04:03:52.381Z,92.48
2022-12-17T04:08:52.303Z,92.42
2022-12-17T04:13:52.305Z,92.69
2022-12-17T04:18:52.233Z,92.54
2022-12-17T04:23:52.151Z,92.06
2022-12-17T04:28:52.059Z,92.69
2022-12-17T04:33:52.039Z,92.76
2022-12-17T04:38:51.927Z,91.71
2022-12-17T04:43:51.894Z,91.71
2022-12-17T04:48:51.836Z,91.33
2022-12-17T04:53:51.752Z,91.60
2022-12-17T04:58:51.701Z,90.69
2022-12-17T05:03:51.696Z,90.91
2022-12-17T05:08:51.560Z,90.66
2022-12-17T05:13:51.506Z,90.30
2022-12-17T05:18:51.474Z,89.77
2022-12-17T05:23:51.412Z,88.82
2022-12-17T05:28:51.292Z,88.47
2022-12-17T05:33:51.359Z,88.51
2022-12-17T05:38:51.232Z,88.57
2022-12-17T05:43:51.111Z,88.57
2022-12-17T05:48:51.070Z,88.30
2022-12-17T05:53:51.031Z,88.89
2022-12-17T05:58:50.958Z,88.72
2022-12-17T06:03:51.002Z,89.31
2022-12-17T06:08:50.860Z,88.72
2022-12-17T06:13:50.750Z,89.00
2022-12-17T06:18:50.717Z,88.41
2022-12-17T06:23:50.633Z,88.62
2022-12-17T06:28:50.576Z,89.04
2022-12-17T06:33:50.474Z,88.37
2022-12-17T06:38:50.430Z,89.00
2022-12-17T06:43:50.404Z,88.37
2022-12-17T06:48:50.328Z,88.82
2022-12-17T06:53:50.249Z,88.82
2022-12-17T06:58:50.192Z,89.31
2022-12-17T07:03:50.154Z,88.47
2022-12-17T07:08:50.126Z,88.57
2022-12-17T07:13:50.067Z,88.57
2022-12-17T07:18:49.900Z,88.57
2022-12-17T07:23:49.888Z,88.68
2022-12-17T07:28:49.796Z,88.54
2022-12-17T07:33:49.715Z,88.22
2022-12-17T07:38:49.670Z,88.37
2022-12-17T07:43:52.941Z,88.32
2022-12-17T07:48:49.538Z,88.22
2022-12-17T07:53:49.478Z,88.29
2022-12-17T07:58:49.388Z,87.62
2022-12-17T08:03:49.440Z,86.71
2022-12-17T08:08:49.324Z,87.30
2022-12-17T08:13:49.233Z,86.99
2022-12-17T08:18:49.172Z,87.41
2022-12-17T08:23:49.109Z,88.21
2022-12-17T08:28:50.828Z,87.37
2022-12-17T08:33:48.919Z,87.83
2022-12-17T08:38:48.841Z,89.09
2022-12-17T08:43:49.135Z,89.15
2022-12-17T08:48:48.799Z,89.04
2022-12-17T08:53:48.734Z,89.57
2022-12-17T08:58:48.602Z,90.20
2022-12-17T09:03:48.684Z,90.61
2022-12-17T09:08:48.532Z,90.41
2022-12-17T09:13:48.449Z,90.34
2022-12-17T09:18:48.393Z,91.24
2022-12-17T09:23:48.334Z,90.89
2022-12-17T09:28:48.295Z,89.84
2022-12-17T09:33:48.244Z,90.68
2022-12-17T09:38:48.085Z,90.05
2022-12-17T09:43:48.057Z,90.47
2022-12-17T09:48:48.017Z,92.21
2022-12-17T09:53:47.891Z,90.01
2022-12-17T09:58:47.923Z,89.97
2022-12-17T10:03:47.806Z,89.45
2022-12-17T10:08:47.696Z,89.72
2022-12-17T10:13:47.696Z,89.86
2022-12-17T10:18:47.569Z,88.67
2022-12-17T10:23:47.779Z,89.03
2022-12-17T10:28:47.450Z,89.23
2022-12-17T10:33:47.486Z,89.70
2022-12-17T10:38:47.312Z,90.28
2022-12-17T10:43:47.366Z,90.18
2022-12-17T10:48:47.675Z,91.22
2022-12-17T10:53:47.123Z,90.14
2022-12-17T10:58:47.795Z,90.24
2022-12-17T11:03:47.067Z,89.65
2022-12-17T11:08:46.969Z,89.97
2022-12-17T11:13:47.036Z,90.49
2022-12-17T11:18:46.789Z,89.65
2022-12-17T11:23:46.851Z,90.28
2022-12-17T11:28:46.648Z,89.97
2022-12-17T11:33:46.613Z,90.24
2022-12-17T11:38:46.546Z,89.40
2022-12-17T11:43:46.575Z,88.74
2022-12-17T11:48:48.062Z,88.74
2022-12-17T11:53:46.402Z,88.53
2022-12-17T11:58:46.274Z,88.78
2022-12-17T12:03:46.349Z,88.99
2022-12-17T12:08:46.948Z,88.71
2022-12-17T12:13:46.184Z,89.09
2022-12-17T12:18:46.003Z,88.67
2022-12-17T12:23:45.981Z,89.36
2022-12-17T12:28:46.054Z,88.21
2022-12-17T12:33:45.860Z,87.90
2022-12-17T12:38:47.297Z,86.92
2022-12-17T12:43:45.689Z,85.77
2022-12-17T12:48:45.765Z,87.31
2022-12-17T12:53:45.601Z,87.52
2022-12-17T12:58:45.583Z,87.73
2022-12-17T13:03:45.635Z,87.98
2022-12-17T13:08:45.387Z,87.77
2022-12-17T13:13:45.342Z,88.15
2022-12-17T13:18:45.409Z,87.10
2022-12-17T13:23:45.243Z,87.88
2022-12-17T13:28:45.175Z,88.09
2022-12-17T13:33:45.124Z,87.56
2022-12-17T13:38:45.039Z,87.66
2022-12-17T13:43:44.939Z,87.18
2022-12-17T13:48:44.920Z,87.15
2022-12-17T13:53:44.794Z,86.45
2022-12-17T13:58:47.296Z,85.93
2022-12-17T14:08:45.618Z,86.28
2022-12-17T14:13:44.562Z,86.24
2022-12-17T14:18:44.507Z,85.93
2022-12-17T14:23:44.439Z,86.52
2022-12-17T14:28:48.695Z,84.88
2022-12-17T14:33:45.310Z,86.41
2022-12-17T14:38:48.463Z,85.89
2022-12-17T14:43:44.136Z,85.68
2022-12-17T14:48:44.181Z,86.04
2022-12-17T14:53:44.072Z,85.09
2022-12-17T14:58:43.934Z,85.65
2022-12-17T15:03:44.125Z,85.24
2022-12-17T15:08:43.825Z,86.14
2022-12-17T15:13:44.023Z,85.34
2022-12-17T15:18:44.084Z,86.14
2022-12-17T15:23:43.671Z,84.39
2022-12-17T15:28:43.687Z,85.27
2022-12-17T15:33:43.517Z,85.65
2022-12-17T15:38:43.421Z,85.55
2022-12-17T15:43:43.645Z,85.17
2022-12-17T15:48:49.589Z,85.38
2022-12-17T15:53:44.267Z,85.42
2022-12-17T15:58:43.258Z,85.66
2022-12-17T16:03:43.232Z,88.56
2022-12-17T16:08:43.060Z,92.25
2022-12-17T16:13:43.276Z,84.22
2022-12-17T16:18:42.933Z,86.95
2022-12-17T16:23:42.920Z,85.83
2022-12-17T16:28:42.768Z,86.71
2022-12-17T16:33:42.780Z,87.24
2022-12-17T16:38:42.710Z,87.70
2022-12-17T16:43:42.589Z,88.37
2022-12-17T16:48:42.620Z,88.37
2022-12-17T16:53:42.563Z,88.79
2022-12-17T16:58:42.423Z,90.12
2022-12-17T17:03:42.428Z,90.44
2022-12-17T17:08:42.273Z,91.26
2022-12-17T17:13:42.225Z,92.46
2022-12-17T17:18:42.512Z,93.45
2022-12-17T17:23:42.045Z,94.50
2022-12-17T17:28:42.013Z,94.96
2022-12-17T17:33:41.971Z,95.87
2022-12-17T17:38:41.935Z,96.08
2022-12-17T17:43:41.824Z,95.83
2022-12-17T17:48:41.739Z,94.90
2022-12-17T17:53:42.767Z,93.38
2022-12-17T17:58:41.648Z,92.08
2022-12-17T18:03:42.413Z,90.30
2022-12-17T18:08:42.207Z,89.67
2022-12-17T18:13:41.472Z,90.38
2022-12-17T18:18:41.447Z,91.22
2022-12-17T18:23:41.329Z,91.58
2022-12-17T18:28:41.292Z,92.14
2022-12-17T18:33:41.331Z,92.40
2022-12-17T18:38:41.115Z,92.54
2022-12-17T18:43:41.048Z,93.70
2022-12-17T18:48:41.037Z,94.17
2022-12-17T18:53:40.926Z,94.84
2022-12-17T18:58:40.857Z,95.83
2022-12-17T19:03:41.921Z,97.79
2022-12-17T19:08:41.090Z,98.49
2022-12-17T19:13:40.838Z,97.47
2022-12-17T19:18:40.795Z,96.83
2022-12-17T19:23:40.617Z,96.72
2022-12-17T19:28:40.613Z,97.03
2022-12-17T19:33:40.444Z,96.93
2022-12-17T19:38:40.746Z,96.87
2022-12-17T19:43:40.291Z,96.87
2022-12-17T19:48:45.012Z,96.70
2022-12-17T19:53:41.194Z,96.81
2022-12-17T19:58:40.374Z,96.49
2022-12-17T20:03:40.136Z,96.00
2022-12-17T20:08:40.556Z,96.37
2022-12-17T20:13:40.022Z,96.37
2022-12-17T20:18:40.382Z,96.58
2022-12-17T20:23:39.864Z,96.20
2022-12-17T20:28:40.389Z,95.98
2022-12-17T20:33:39.658Z,96.14
2022-12-17T20:38:39.959Z,96.30
2022-12-17T20:43:39.509Z,96.14
2022-12-17T20:48:39.999Z,96.24
2022-12-17T20:53:39.557Z,96.56
2022-12-17T20:58:39.711Z,96.66
2022-12-17T21:03:39.307Z,96.71
2022-12-17T21:08:43.353Z,96.44
2022-12-17T21:13:40.217Z,97.81
2022-12-17T21:18:39.525Z,98.93
2022-12-17T21:23:39.030Z,98.55
2022-12-17T21:28:39.554Z,98.66
2022-12-17T21:33:38.901Z,97.64
2022-12-17T21:38:39.264Z,97.53
2022-12-17T21:43:38.815Z,97.43
2022-12-17T21:48:41.906Z,97.22
2022-12-17T21:53:38.906Z,97.58
2022-12-17T21:58:39.060Z,97.79
2022-12-17T22:03:38.637Z,97.79
2022-12-17T22:08:38.870Z,97.47
2022-12-17T22:13:38.446Z,97.31
2022-12-17T22:18:38.764Z,97.41
2022-12-17T22:23:38.300Z,97.83
2022-12-17T22:28:38.505Z,97.63
2022-12-17T22:33:57.671Z,96.98
2022-12-17T22:44:34.071Z,96.92
2022-12-17T22:44:49.262Z,96.92
2022-12-17T22:48:39.021Z,96.72
2022-12-17T22:53:38.305Z,96.27
2022-12-17T22:58:37.843Z,96.55
2022-12-17T23:03:38.378Z,96.55
2022-12-17T23:08:37.705Z,96.27
2022-12-17T23:13:38.215Z,96.06
2022-12-17T23:18:37.609Z,96.12
2022-12-17T23:23:37.956Z,96.06
2022-12-17T23:28:37.557Z,95.84
2022-12-17T23:33:37.750Z,96.27
2022-12-17T23:38:37.573Z,96.27
2022-12-17T23:43:37.656Z,95.78
2022-12-17T23:48:39.560Z,96.31
2022-12-17T23:53:38.612Z,96.00
2022-12-17T23:58:37.104Z,95.67
